ADDS METAR Data INFO
IDs: Format: Raw Decoded Include TAF

Data at: 0218 UTC 18 Jan 2018

PAKF 180201Z AUTO 32010G21KT 290V010 10SM UP BKN042 BKN049 01/M08 A2972 RMK AO2 PK WND 02029/0143 SLP159 P0000 T00061078 FZRANO
PAKF 180101Z AUTO 33012G30KT 10SM UP FEW030 BKN036 BKN047 00/M07 A2970 RMK AO2 PK WND 36030/0059 RAE0004UPB0027SNB0004E0027B0042E0052 SLP154 P0000 T00001067 FZRANO
PAKF 180021Z AUTO 30013G21KT 3SM -SN FEW015 BKN030 OVC049 00/M06 A2971 RMK AO2 RAE04SNB04 P0000 FZRANO
PAKF 180012Z AUTO 31013G22KT 1 3/4SM -SN FEW015 BKN033 OVC055 00/M06 A2971 RMK AO2 VIS 1 1/4V4 RAE04SNB04 P0000 FZRANO
PAKF 180001Z AUTO 30012G24KT 9SM -RA FEW031 SCT039 OVC050 01/M07 A2971 RMK AO2 UPE2306B2346E2353RAB2306E2316B2353SNB2316E2337 SLP155 P0000 60000 T00061072 10011 21011 58002 FZRANO
PAKF 172327Z AUTO 34014G21KT 3SM -SN FEW013 BKN033 OVC047 M01/M06 A2971 RMK AO2 UPE06RAB06E16SNB16 P0000 FZRANO
PAKF 172320Z AUTO 32009G20KT 1 3/4SM -SN SCT011 BKN033 OVC050 00/M06 A2972 RMK AO2 UPE06RAB06E16SNB16 P0000 FZRANO
PAKF 172301Z AUTO 32013G21KT 280V360 10SM UP FEW025 BKN043 OVC055 01/M06 A2971 RMK AO2 RAE2210UPB2210E2221B2247SNB2221E2247 SLP156 P0000 T00061061 FZRANO
PAKF 172256Z AUTO 34012G21KT 280V020 10SM UP FEW014 BKN036 OVC050 00/M07 A2971 RMK AO2 RAE10UPB10E21B47SNB21E47 P0000 FZRANO
PAKF 172241Z AUTO 35012G23KT 3SM -SN FEW014 BKN023 OVC047 00/M05 A2971 RMK AO2 RAE10UPB10E21SNB21 P0000 FZRANO
PAKF 172230Z AUTO 34011G17KT 1 3/4SM -SN FEW015 BKN026 OVC045 01/M05 A2972 RMK AO2 VIS 3/4V4 RAE10UPB10E21SNB21 P0000 FZRANO
PAKF 172224Z AUTO 30012G18KT 4SM -SN BKN026 BKN035 OVC045 01/M06 A2972 RMK AO2 RAE10UPB10E21SNB21 P0000 FZRANO
PAKF 172214Z AUTO 33011G22KT 280V350 10SM UP SCT028 BKN032 BKN045 00/M06 A2972 RMK AO2 RAE10UPB10 P0000 FZRANO
PAKF 172207Z AUTO 33015G27KT 10SM -RA FEW020 BKN028 00/M06 A2972 RMK AO2 PK WND 33027/2200 UPB2124E2133B2158E02RAB02SNE2124B2133E2153 SLP158 P0000 T00001061 FZRANO
PAKF 172201Z AUTO 33016G27KT 9SM UP FEW020 BKN028 01/M06 A2972 RMK AO2 PK WND 33027/2200 UPB2124E2133B2158SNE2124B2133E2153 P0000 FZRANO
PAKF 172142Z AUTO 32013G25KT 5SM -SN FEW007 SCT022 BKN031 M01/M06 A2971 RMK AO2 PK WND 33027/2117 UPB24E33SNE24B33 P0000 FZRANO
PAKF 172139Z AUTO 33011G23KT 2SM -SN FEW007 SCT018 BKN022 M01/M06 A2971 RMK AO2 PK WND 33027/2117 VIS 3/4V5 UPB24E33SNE24B33 P0000 FZRANO
PAKF 172132Z AUTO 31016G24KT 1 3/4SM UP FEW007 SCT017 BKN032 00/M04 A2971 RMK AO2 PK WND 33027/2117 UPB24SNE24 P0000 FZRANO
PAKF 172125Z AUTO 33018G27KT 6SM UP FEW020 SCT027 BKN032 00/M05 A2971 RMK AO2 PK WND 33027/2117 UPB24SNE24 P0000 FZRANO
PAKF 172107Z AUTO 33014G22KT 290V350 3SM -SN SCT008 BKN020 OVC032 M01/M04 A2970 RMK AO2 P0000 FZRANO
PAKF 172103Z AUTO 31014G22KT 2SM -SN SCT008 BKN011 OVC026 M01/M04 A2970 RMK AO2 P0000 FZRANO
PAKF 172101Z AUTO 33011G18KT 300V010 1 1/2SM -SN BKN008 BKN014 OVC024 M01/M04 A2970 RMK AO2 PK WND 29036/2003 UPE2020SNB2020 CIG 005V011 SLP153 P0000 60000 T10061044 53011 FZRANO
PAKF 172059Z AUTO 29013G21KT 240V330 1 1/4SM -SN BKN008 BKN014 OVC024 M01/M04 A2970 RMK AO2 PK WND 29036/2003 UPE20SNB20 CIG 005V011 P0000 FZRANO
PAKF 172053Z AUTO 32014G22KT 3/4SM -SN FEW006 BKN010 OVC014 M01/M04 A2970 RMK AO2 PK WND 29036/2003 UPE20SNB20 P0000 FZRANO RVRNO
PAKF 172042Z AUTO 31016G30KT 1/2SM SN BKN008 BKN014 OVC026 M01/M04 A2970 RMK AO2 PK WND 29036/2003 UPE20SNB20 CIG 005V010 P0000 FZRANO RVRNO
PAKF 172038Z AUTO 33013G21KT 3/4SM -SN SCT008 BKN014 OVC035 M01/M04 A2969 RMK AO2 PK WND 29036/2003 UPE20SNB20 P0000 FZRANO RVRNO
PAKF 172033Z AUTO 32017G21KT 1SM -SN FEW007 BKN023 OVC050 00/M04 A2969 RMK AO2 PK WND 29036/2003 UPE20SNB20 P0000 FZRANO RVRNO
PAKF 172028Z AUTO 33012G31KT 2SM -SN SCT023 BKN028 OVC050 00/M04 A2969 RMK AO2 PK WND 29036/2003 UPE20SNB20 P0000 FZRANO
PAKF 172001Z AUTO 32018G29KT 300V360 9SM UP FEW029 BKN036 OVC050 00/M07 A2967 RMK AO2 PK WND 29033/1913 UPE1917B1948SNB1917E1948 SLP144 P0000 T00001067 FZRANO
PAKF 171949Z AUTO 33016G26KT 9SM UP FEW022 BKN035 OVC043 00/M06 A2967 RMK AO2 PK WND 29033/1913 UPE17B48SNB17E48 P0000 FZRANO
PAKF 171940Z AUTO 32014G28KT 280V010 3SM -SN FEW022 BKN029 OVC045 M01/M06 A2967 RMK AO2 PK WND 29033/1913 UPE17SNB17 P0000 FZRANO
PAKF 171933Z AUTO 31017G28KT 260V010 2SM -SN FEW022 BKN026 OVC044 M01/M06 A2967 RMK AO2 PK WND 29033/1913 VIS 1V5 UPE17SNB17 P0000 FZRANO
PAKF 171909Z AUTO 33013G26KT 280V350 9SM UP FEW020 SCT031 OVC044 00/M07 A2965 RMK AO2 PK WND 29038/1836 UPB04SNE04 SLP136 P0000 T00001067 FZRANO
PAKF 171901Z AUTO 29017G33KT 5SM -SN FEW011 BKN031 OVC048 00/M06 A2965 RMK AO2 PK WND 29038/1836 P0000 FZRANO
PAKF 171846Z AUTO 32018G27KT 2SM -SN SCT011 BKN021 OVC034 M01/M04 A2964 RMK AO2 PK WND 29038/1836 P0000 FZRANO
PAKF 171840Z AUTO 33014G38KT 1 1/4SM -SN FEW009 BKN014 OVC027 M01/M04 A2964 RMK AO2 PK WND 29038/1836 P0000 FZRANO
PAKF 171834Z AUTO 32021G29KT 290V360 2SM -SN SCT012 BKN027 OVC036 M01/M04 A2964 RMK AO2 PK WND 32041/1824 VIS 3/4V5 UPB1705E1714B1738E1748SNE1705B1714E1738B1748 SLP134 P0000 60000 T10061044 10000 21006 51015 FZRANO
PAKF 171825Z AUTO 32028G41KT 2 1/2SM -SN FEW008 BKN023 OVC030 M01/M04 A2963 RMK AO2 PK WND 32041/1824 VIS 1 1/2V4 UPB1705E1714B1738E1748SNE1705B1714E1738B1748 P0000 FZRANO
PAKF 171816Z AUTO 31022G31KT 290V350 3SM -SN FEW008 SCT015 OVC022 M01/M04 A2963 RMK AO2 PK WND 33035/1712 UPB1705E1714B1738E1748SNE1705B1714E1738B1748 P0000 FZRANO
PAKF 171801Z AUTO 32015G32KT 1 1/2SM -SN FEW009 BKN018 OVC043 M01/M04 A2963 RMK AO2 PK WND 33035/1712 VIS 1 1/4V2 1/2 UPB1705E1714B1738E1748SNE1705B1714E1738B1748 P0000 FZRANO
PAKF 171758Z AUTO 33019G32KT 1 1/2SM -SN BKN014 BKN025 OVC043 M01/M05 A2963 RMK AO2 PK WND 33035/1712 VIS 1 1/4V2 1/2 UPB05E14B38E48SNE05B14E38B48 P0000 FZRANO
PAKF 171757Z AUTO 33020G32KT 1 3/4SM -SN SCT014 BKN020 OVC043 M01/M05 A2963 RMK AO2 PK WND 33035/1712 VIS 1 1/4V2 1/2 UPB05E14B38E48SNE05B14E38B48 P0000 FZRANO
PAKF 171740Z AUTO 32021G33KT 6SM UP FEW020 SCT027 OVC041 00/M06 A2962 RMK AO2 PK WND 33035/1712 UPB05E14B38SNE05B14E38 P0000 FZRANO
PAKF 171733Z AUTO 32021G30KT 4SM -SN FEW020 BKN026 OVC044 00/M06 A2961 RMK AO2 PK WND 33035/1712 UPB05E14SNE05B14 P0000 FZRANO
PAKF 171718Z AUTO 31021G35KT 2 1/2SM -SN SCT020 BKN028 OVC045 M01/M05 A2961 RMK AO2 PK WND 33035/1712 VIS 1 1/2V5 UPB05E14SNE05B14 P0000 FZRANO
PAKF 171701Z AUTO 32020G31KT 7SM -SN FEW012 BKN030 OVC041 00/M06 A2961 RMK AO2 PK WND 30038/1639 SLP122 P0000 T00001056 FZRANO
PAKF 171657Z AUTO 32021G32KT 4SM -SN FEW012 BKN030 OVC041 00/M06 A2961 RMK AO2 PK WND 30038/1639 P0000 FZRANO
PAKF 171649Z AUTO 31021G34KT 2SM -SN FEW012 BKN019 OVC041 M01/M04 A2961 RMK AO2 PK WND 30038/1639 VIS 1V3 P0000 FZRANO
PAKF 171643Z AUTO 32022G38KT 1 3/4SM -SN FEW012 BKN033 OVC041 M01/M05 A2961 RMK AO2 PK WND 30038/1639 P0000 FZRANO
PAKF 171623Z AUTO 32018G31KT 8SM -SN FEW009 BKN032 OVC039 00/M06 A2960 RMK AO2 PK WND 34035/1603 P0000 FZRANO
PAKF 171618Z AUTO 31018G33KT 3SM -SN SCT009 BKN013 OVC029 00/M06 A2960 RMK AO2 PK WND 34035/1603 P0000 FZRANO
PAKF 171613Z AUTO 32018G34KT 1 1/2SM -SN SCT009 BKN015 OVC027 M01/M04 A2960 RMK AO2 PK WND 34035/1603 P0000 FZRANO
PAKF 171606Z AUTO 33023G38KT 1SM -SN BKN009 BKN013 OVC040 M01/M04 A2960 RMK AO2 PK WND 34035/1603 CIG 007V012 P0000 FZRANO RVRNO
PAKF 171601Z AUTO 32024G38KT 1 3/4SM -SN SCT009 BKN019 OVC043 M01/M04 A2961 RMK AO2 PK WND 31039/1521 VIS 3/4V5 UPE1515B1535E1545RAB1515E1549SNB1549 SLP121 P0000 T10061044 FZRANO
PAKF 171553Z AUTO 32018G36KT 1 1/2SM -SN SCT009 BKN025 OVC043 00/M04 A2960 RMK AO2 PK WND 31039/1521 VIS 3/4V5 UPE15B35E45RAB15E49SNB49 P0000 FZRANO
PAKF 171551Z AUTO 32021G36KT 2SM -SN FEW009 SCT019 OVC041 00/M04 A2960 RMK AO2 PK WND 31039/1521 VIS 3/4V5 UPE15B35E45RAB15E49SNB49 P0000 FZRANO
PAKF 171501Z AUTO 32016G37KT 8SM UP FEW017 BKN036 OVC047 00/M06 A2958 RMK AO2 PK WND 34039/1444 UPE1410B1428SNB1410E1428B1431E1441B1448E01 SLP113 P0000 60000 T00001056 53005 FZRANO
PAKF 171459Z AUTO 32018G37KT 280V350 7SM -SN FEW017 BKN034 OVC047 00/M06 A2958 RMK AO2 PK WND 34039/1444 UPE10B28E48SNB10E28B31E41B48 P0000 FZRANO
PAKF 171401Z AUTO 31016G35KT 260V350 5SM UP FEW010 SCT017 OVC023 00/M04 A2958 RMK AO2 PK WND 33038/1339 UPB1313E1329B1353SNE1313B1329E1353 SLP111 P0000 T00001039 FZRANO
PAKF 171347Z AUTO 32020G38KT 3SM -SN FEW010 BKN025 OVC032 00/M04 A2958 RMK AO2 PK WND 33038/1339 UPB13E29SNE13B29 P0000 FZRANO
PAKF 171337Z AUTO 31020G31KT 1 3/4SM -SN SCT013 BKN027 OVC045 00/M04 A2958 RMK AO2 PK WND 28033/1307 UPB13E29SNE13B29 P0000 FZRANO
PAKF 171313Z AUTO 31017G33KT 270V350 7SM UP FEW020 SCT031 OVC043 00/M06 A2957 RMK AO2 PK WND 28033/1307 UPB13SNE13 P0000 FZRANO
PAKF 171301Z AUTO 33020G36KT 3SM -SN FEW021 BKN026 OVC043 00/M05 A2958 RMK AO2 PK WND 31036/1258 UPB1202E1244SNE1202B1211E1220B1244 SLP110 P0000 T00001050 FZRANO
PAKF 171245Z AUTO 32017G33KT 5SM -SN SCT021 BKN026 BKN035 00/M04 A2957 RMK AO2 PK WND 31035/1212 UPB02E44SNE02B11E20B44 P0000 FZRANO
PAKF 171228Z AUTO 31022G30KT 270V340 10SM UP SCT027 SCT032 BKN042 00/M05 A2956 RMK AO2 PK WND 31035/1212 UPB02SNE02B11E20 P0000 FZRANO
PAKF 171201Z AUTO 32021G33KT 9SM -SN FEW015 BKN026 OVC046 00/M06 A2956 RMK AO2 PK WND 33033/1201 SLP106 P0000 60003 70038 T00001056 10006 20000 51006 FZRANO
PAKF 171154Z AUTO 31016G31KT 4SM -SN FEW016 BKN026 OVC048 00/M05 A2956 RMK AO2 PK WND 34035/1135 RAE1037B36E45UPB1037E1045B24E36SNB1045E24B45 SLP107 P0000 T00001050 FZRANO
PAKF 171110Z AUTO 33018G29KT 4SM -SN FEW007 BKN019 OVC025 00/M03 A2956 RMK AO2 PK WND 35032/1021 RAE1037UPB1037E1045SNB1045 P0000 FZRANO
PAKF 171101Z AUTO 33018G31KT 300V010 1 1/4SM -SN SCT007 BKN012 OVC026 00/M03 A2955 RMK AO2 PK WND 35032/1021 RAE1037UPB1037E1045SNB1045 P0000 FZRANO
PAKF 171058Z AUTO 32020G31KT 280V350 1SM -SN BKN007 BKN014 OVC055 00/M03 A2956 RMK AO2 PK WND 35032/1021 RAE37UPB37E45SNB45 CIG 004V011 P0000 FZRANO RVRNO
PAKF 171053Z AUTO 33016G31KT 1 1/4SM -SN SCT007 BKN014 OVC055 00/M03 A2956 RMK AO2 PK WND 35032/1021 RAE37UPB37E45SNB45 P0000 FZRANO
PAKF 171048Z AUTO 32012G29KT 2 1/2SM -SN FEW009 BKN018 OVC055 00/M03 A2955 RMK AO2 PK WND 35032/1021 RAE37UPB37E45SNB45 P0000 FZRANO
PAKF 171001Z AUTO 32019G37KT 6SM -RA BKN024 BKN029 BKN050 01/M03 A2955 RMK AO2 PK WND 30037/0959 RAB09080906E09080923B09080940E09080947B0945UPB0946E0958SNE0908090 6B09080923E0945 SLP101 P0000 T00061033 400060000 FZRANO
PAKF 170927Z AUTO 32024G33KT 5SM -SN SCT016 BKN022 OVC044 01/M03 A2953 RMK AO2 PK WND 34037/0836 RAB0806E0823B0840E0847SNE0806B0823 P0000 400060000 FZRANO
PAKF 170908Z AUTO 32020G28KT 290V350 2 1/2SM -SN SCT006 BKN016 OVC021 01/M03 A2952 RMK AO2 PK WND 34037/0836 VIS 2V3 RAB0806E0823B0840E0847SNE0806B0823 P0000 400060000 FZRANO
PAKF 170901Z AUTO 33020G32KT 1SM -SN BKN006 BKN010 OVC024 00/M03 A2952 RMK AO2 PK WND 34037/0836 RAB0806E0823B0840E0847SNE0806B0823 CIG 004V009 P0000 400000000 FZRANO RVRNO
PAKF 170854Z AUTO 32022G32KT 290V350 3/4SM -SN BKN006 BKN010 OVC021 01/M02 A2952 RMK AO2 PK WND 34037/0836 RAB06E23B40E47SNE06B23 CIG 004V009 P0000 FZRANO RVRNO
PAKF 170850Z AUTO 32018G29KT 1SM -SN SCT006 BKN010 OVC023 01/M02 A2951 RMK AO2 PK WND 34037/0836 RAB06E23B40E47SNE06B23 CIG 008V013 P0000 FZRANO RVRNO
PAKF 170846Z AUTO 32019G27KT 1 3/4SM -RA FEW006 BKN018 OVC023 01/M03 A2951 RMK AO2 PK WND 34037/0836 RAB06E23B40SNE06B23E40 P0000 FZRANO
PAKF 170842Z AUTO 32017G37KT 3SM -RA FEW009 BKN018 OVC023 01/M03 A2951 RMK AO2 PK WND 34037/0836 RAB06E23B40SNE06B23E40 P0000 FZRANO
PAKF 170830Z AUTO 31018G33KT 2SM -SN SCT009 SCT016 OVC023 01/M03 A2950 RMK AO2 PK WND 29034/0802 RAB06E23SNE06B23 P0000 FZRANO
PAKF 170801Z AUTO 32022G30KT 3SM -SN FEW014 BKN025 OVC033 01/M03 A2949 RMK AO2 PK WND 30034/0750 RAB07060702E07060756B0734E0746SNE07060702B07060756 SLP082 P0001 T00061033 FZRANO
PAKF 170724Z AUTO 33019G30KT 4SM -SN SCT008 BKN015 OVC030 01/M03 A2950 RMK AO2 PK WND 30033/0644 RAB0602E0656SNE0602B0656 P0000 FZRANO
PAKF 170717Z AUTO 32017G29KT 280V350 1 1/4SM -SN BKN008 BKN015 OVC023 01/M02 A2950 RMK AO2 PK WND 30033/0644 RAB0602E0656SNE0602B0656 CIG 004V013 P0000 FZRANO
PAKF 170710Z AUTO 33016G29KT 1 1/4SM -SN SCT010 BKN020 OVC030 01/M02 A2951 RMK AO2 PK WND 30033/0644 RAB0602E0656SNE0602B0656 P0000 FZRANO
PAKF 170701Z AUTO 31019G30KT 2SM -SN SCT009 BKN020 OVC037 01/M02 A2950 RMK AO2 PK WND 30033/0644 RAB0602E0656SNE0602B0656 P0000 FZRANO
PAKF 170601Z AUTO 32020G33KT 9SM -SN FEW009 BKN023 OVC035 02/M03 A2948 RMK AO2 PK WND 33035/0503 RAE0543SNB0525 SLP077 P0000 60015 T00171028 10022 20011 53013 FZRANO
PAKF 170554Z AUTO 32022G33KT 3SM -SN FEW009 BKN017 OVC026 01/M02 A2947 RMK AO2 PK WND 33035/0503 RAE43SNB25 P0000 FZRANO
PAKF 170548Z AUTO 31021G31KT 2 1/2SM -SN SCT009 BKN014 OVC019 01/M02 A2947 RMK AO2 PK WND 33035/0503 VIS 1 1/4V5 RAE43SNB25 P0000 FZRANO
PAKF 170539Z AUTO 32023G29KT 3SM -RA FEW009 BKN019 BKN025 01/M02 A2947 RMK AO2 PK WND 33035/0503 SNB25E38 P0000 FZRANO
PAKF 170524Z AUTO 32020G31KT 2 1/2SM -RA FEW009 SCT019 BKN024 02/M02 A2947 RMK AO2 PK WND 33035/0503 P0000 FZRANO
PAKF 170501Z AUTO 31022G31KT 10SM -RA SCT014 BKN022 OVC035 02/M02 A2946 RMK AO2 PK WND 35033/0419 RAE0411B0452SNB0411E0452 SLP071 P0002 T00171017 FZRANO
PAKF 170445Z AUTO 31016G32KT 7SM -SN SCT008 BKN015 OVC034 01/M01 A2946 RMK AO2 PK WND 35033/0419 RAE11SNB11 P0001 FZRANO
PAKF 170439Z AUTO 31017G28KT 3SM -SN BR BKN008 BKN013 OVC018 01/M01 A2946 RMK AO2 PK WND 35033/0419 RAE11SNB11 CIG 005V011 P0001 FZRANO
PAKF 170437Z AUTO 34020G28KT 2SM -SN BR BKN008 BKN013 OVC018 01/M01 A2945 RMK AO2 PK WND 35033/0419 VIS 1V5 RAE11SNB11 CIG 005V011 P0001 FZRANO
PAKF 170420Z AUTO 33019G33KT 1 1/2SM -SN SCT006 BKN013 OVC026 01/M02 A2945 RMK AO2 PK WND 35033/0419 RAE11SNB11 P0000 FZRANO
PAKF 170412Z AUTO 31021G29KT 2SM -SN FEW006 BKN022 OVC037 02/M02 A2945 RMK AO2 PK WND 29029/0406 VIS 1 1/4V5 RAE11SNB11 P0000 FZRANO
PAKF 170401Z AUTO 32023G32KT 10SM -RA SCT015 BKN028 OVC065 02/M02 A2943 RMK AO2 PK WND 31033/0349 RAE03020301030203000302030103020356B0302030103020312E030203010302 0357B03020350UPB03020358E0304SNB03020301030203000302030103
PAKF 170314Z AUTO 31015G24KT 5SM -RA FEW006 BKN017 OVC023 02/M01 A2943 RMK AO2 RAE0201020002010256B02010212E02010257B0250UPB0258E04SNB0201020002 010206E0201020002010228B02010221E02010232B02010257E0250 P0004 FZRANO
PAKF 170301Z AUTO 32017G23KT 7SM UP SCT013 OVC017 02/M01 A2942 RMK AO2 RAE0201020002010256B02010212E02010257B0250E0258UPB0258SNB02010200 02010206E0201020002010228B02010221E02010232B02010257E0250 P0004 FZRANO
PAKF 170252Z AUTO 33018G24KT 9SM -RA BKN013 OVC019 02/M01 A2942 RMK AO2 RAE01000156B0112E0157B50SNB01000106E01000128B0121E0132B0157E50 P0004 FZRANO
PAKF 170240Z AUTO 32017G25KT 5SM -SN BR SCT010 OVC017 02/M01 A2942 RMK AO2 RAE01000156B0112E0157SNB01000106E01000128B0121E0132B0157 P0004 FZRANO
PAKF 170231Z AUTO 31016G25KT 1 1/2SM -SN BR FEW008 OVC015 02/M01 A2942 RMK AO2 RAE01000156B0112E0157SNB01000106E01000128B0121E0132B0157 P0004 FZRANO
PAKF 170224Z AUTO 33013G25KT 1 3/4SM -SN BR FEW007 BKN011 OVC017 02/M01 A2942 RMK AO2 RAE01000156B0112E0157SNB01000106E01000128B0121E0132B0157 P0003 FZRANO
PAKF 170215Z AUTO 33010G24KT 290V360 2SM -SN BR SCT009 BKN014 OVC019 01/M01 A2942 RMK AO2 VIS 3/4V5 RAE01000156B0112E0157SNB01000106E01000128B0121E0132B0157 P0003 FZRANO
PAKF 170207Z AUTO 32015G22KT 290V360 1 1/4SM -SN BR BKN010 OVC014 01/M01 A2941 RMK AO2 RAE01000156B0112E0157SNB01000106E01000128B0121E0132B0157 CIG 005V012 P0003 FZRANO
PAKF 170201Z AUTO 32012G22KT 1SM -SN BKN010 OVC014 02/M01 A2941 RMK AO2 RAE01000156B0112E0157SNB01000106E01000128B0121E0132B0157 CIG 005V012 P0002 FZRANO RVRNO
PAKF 170159Z AUTO 31016G25KT 1 1/2SM -SN BKN010 OVC014 02/M01 A2942 RMK AO2 RAE0056B12E57SNB0006E0028B21E32B57 CIG 007V012 P0002 FZRANO
PAKF 170145Z AUTO 32015G23KT 8SM -RA FEW008 BKN014 OVC035 02/M01 A2941 RMK AO2 RAE0056B12SNB0006E0028B21E32 P0002 FZRANO
PAKF 170127Z AUTO 32014G24KT 3SM -SN BR BKN013 OVC020 02/M01 A2941 RMK AO2 RAE0056B12E21SNB0006E0028B21 P0002 FZRANO
PAKF 170101Z AUTO 32013G21KT 10SM OVC017 02/M01 A2940 RMK AO2 RAE0056SNB0006E0028 P0001 FZRANO
PAKF 170052Z AUTO 33013G20KT 300V010 10SM -RA BKN014 OVC019 02/M01 A2940 RMK AO2 SNB06E28 P0001 FZRANO
PAKF 170012Z AUTO 32011G21KT 5SM -SN BKN016 BKN025 OVC043 02/M01 A2940 RMK AO2 RAE06SNB06 P0000 FZRANO
PAKF 170001Z AUTO 31015G25KT 9SM -RA SCT011 BKN014 OVC044 02/00 A2939 RMK AO2 SNB2313E2324 SLP048 P0004 60028 T00220000 10022 20017 58002 FZRANO
PAKF 162332Z AUTO 32014G21KT 5SM -RA BR FEW009 BKN013 OVC019 02/00 A2939 RMK AO2 SNB13E24 P0002 FZRANO
PAKF 162323Z AUTO 31013G22KT 3SM -SN BR FEW009 BKN018 OVC026 02/00 A2939 RMK AO2 RAE13SNB13 P0002 FZRANO
PAKF 162319Z AUTO 31010KT 2SM -SN FEW009 BKN012 OVC021 02/M01 A2939 RMK AO2 RAE13SNB13 P0002 FZRANO
PAKF 162316Z AUTO 31011G19KT 1 3/4SM -SN FEW009 BKN018 OVC027 02/M01 A2939 RMK AO2 VIS 1V4 RAE13SNB13 P0002 FZRANO
PAKF 162308Z AUTO 31016G19KT 280V340 5SM -RA FEW009 BKN018 OVC027 02/M01 A2939 RMK AO2 P0000 FZRANO
PAKF 162301Z AUTO 31010G22KT 8SM -RA BKN009 BKN018 OVC027 02/M01 A2939 RMK AO2 UPB2212E2213B2251E2255RAB2213E2236B2255SNE2212B2236E2251 CIG 007V012 SLP046 P0003 T00221006 FZRANO
PAKF 162249Z AUTO 30012G18KT 260V340 2SM -SN BR BKN009 OVC015 02/M01 A2939 RMK AO2 VIS 1 1/4V3 UPB12E13RAB13E36SNE12B36 CIG 007V012 P0003 FZRANO
PAKF 162247Z AUTO 31014G18KT 1 3/4SM -SN BR SCT009 OVC015 02/M01 A2939 RMK AO2 VIS 1 1/4V3 UPB12E13RAB13E36SNE12B36 P0003 FZRANO
PAKF 162238Z AUTO 31008G21KT 280V340 2 1/2SM -SN BKN010 OVC017 02/M01 A2939 RMK AO2 VIS 1 3/4V5 UPB12E13RAB13E36SNE12B36 CIG 007V014 P0002 FZRANO
PAKF 162216Z AUTO 32012G18KT 7SM -RA FEW009 BKN015 OVC020 02/M01 A2939 RMK AO2 UPB12E13RAB13SNE12 P0001 FZRANO
PAKF 162210Z AUTO 31010KT 5SM -SN BR BKN013 OVC020 02/00 A2939 RMK AO2 P0001 FZRANO
PAKF 162201Z AUTO 33008G21KT 4SM -SN BR SCT011 OVC018 02/00 A2939 RMK AO2 RAB2157E01 SLP047 P0001 T00220000 FZRANO
PAKF 162151Z AUTO 31012G18KT 3SM -SN BKN017 OVC023 02/M01 A2939 RMK AO2 RAB2007E2013B2031E2059B33E46UPB2059E33SNE2031B04E19B46 CIG 010V020 SLP047 P0010 60022 T00221006 53003 FZRANO
PAKF 162139Z AUTO 33013G21KT 9SM -RA FEW009 OVC017 02/M01 A2939 RMK AO2 RAB2007E2013B2031E2059B33UPB2059E33SNE2031B04E19 P0010 FZRANO
PAKF 162128Z AUTO 30009G16KT 2 1/2SM UP BR BKN009 BKN015 OVC021 02/M01 A2939 RMK AO2 VIS 1 1/2V5 RAB2007E2013B2031E2059UPB2059SNE2031B04E19 CIG 005V013 P0010 FZRANO
PAKF 162115Z AUTO 30011G22KT 270V350 1 1/4SM -SN BR BKN009 OVC017 02/M01 A2940 RMK AO2 VIS 1V2 1/2 RAB2007E2013B2031E2059UPB2059E04SNE2031B04 CIG 005V013 P0009 FZRANO
PAKF 162108Z AUTO 32009G16KT 1 3/4SM -SN BR SCT007 BKN016 OVC021 02/M01 A2939 RMK AO2 VIS 1 1/4V4 RAB2007E2013B2031E2059UPB2059E04SNE2031B04 P0007 FZRANO
PAKF 162101Z AUTO 30010G17KT 3SM UP FEW007 BKN016 OVC021 02/M01 A2940 RMK AO2 RAB2007E2013B2031E2059UPB2059SNE2031 P0005 FZRANO
PAKF 162054Z AUTO 30011G18KT 4SM -RA OVC016 02/M01 A2939 RMK AO2 RAB07E13B31SNE31 P0004 FZRANO
PAKF 162050Z AUTO 32009G20KT 2 1/2SM RA BKN014 OVC020 02/M01 A2939 RMK AO2 VIS 1 3/4V4 RAB07E13B31SNE31 P0004 FZRANO
PAKF 162033Z AUTO 31011G16KT 9SM -RA SCT011 BKN017 OVC030 02/00 A2939 RMK AO2 RAB07E13B31SNE31 P0004 FZRANO
PAKF 162025Z AUTO 33011G16KT 2 1/2SM -SN BR SCT009 OVC017 01/M01 A2939 RMK AO2 RAB07E13 P0003 FZRANO
PAKF 162019Z AUTO VRB04KT 1 3/4SM -SN BR BKN013 OVC019 01/M01 A2939 RMK AO2 VIS 1 1/4V3 RAB07E13 P0002 FZRANO
PAKF 162001Z AUTO 33007G14KT 5SM -SN BR BKN016 OVC023 02/00 A2939 RMK AO2 RAE19181949B1923E1955UPB19181926E19181931B19181949E1902B1918E1923 B1949E1953SNB1902E1918B1927E1941B1955 SLP048 P0009 T00170000 FZRANO
PAKF 161941Z AUTO 35008KT 5SM -RA BR SCT014 BKN018 OVC030 02/00 A2939 RMK AO2 RAE1849B23UPB1826E1831B1849E02B18E23SNB02E18B27E41 P0008 FZRANO
PAKF 161929Z AUTO 32011G14KT 4SM -SN BR FEW007 BKN014 OVC023 02/M01 A2938 RMK AO2 RAE1849B23E27UPB1826E1831B1849E02B18E23SNB02E18B27 P0008 FZRANO
PAKF 161922Z AUTO 33008G15KT 2 1/2SM UP BR SCT008 BKN012 OVC020 02/M01 A2938 RMK AO2 VIS 1 1/4V5 RAE1849UPB1826E1831B1849E02B18SNB02E18 P0007 FZRANO
PAKF 161908Z AUTO 30008KT 1 1/2SM -SN BR BKN007 OVC016 01/M01 A2938 RMK AO2 VIS 1V3 RAE1849UPB1826E1831B1849E02SNB02 CIG 005V012 P0006 FZRANO
PAKF 161901Z AUTO 31008G19KT 2SM UP BR BKN009 OVC018 02/M01 A2938 RMK AO2 RAE1849UPB1826E1831B1849 CIG 005V013 P0004 FZRANO
PAKF 161858Z AUTO 31013G19KT 2 1/2SM UP BR BKN011 OVC018 02/M01 A2938 RMK AO2 RAE49UPB26E31B49 CIG 007V013 P0003 FZRANO
PAKF 161848Z AUTO 32010G15KT 5SM -RA BR FEW009 OVC016 02/00 A2937 RMK AO2 UPB26E31 P0001 FZRANO
PAKF 161831Z AUTO 30006G17KT 9SM -RA OVC014 02/00 A2936 RMK AO2 UPB26E31 P0000 FZRANO
PAKF 161824Z AUTO 31007G15KT 7SM -RA SCT009 OVC016 02/00 A2936 RMK AO2 UPB1747E1750B10E16 SLP036 P0001 60003 T00220000 10022 21011 53000 FZRANO
PAKF 161801Z AUTO 31008G17KT 7SM -RA FEW009 BKN015 OVC021 02/00 A2936 RMK AO2 UPB1747E1750 P0001 FZRANO
PAKF 161755Z AUTO 31008KT 270V130 10SM -RA FEW007 BKN013 OVC017 02/00 A2936 RMK AO2 UPB47E50 P0001 FZRANO
PAKF 161752Z AUTO 31009KT 9SM -RA SCT011 BKN017 OVC025 02/00 A2936 RMK AO2 UPB47E50 P0001 FZRANO
PAKF 161710Z AUTO 29011G22KT 8SM -RA FEW008 BKN017 OVC060 02/M01 A2935 RMK AO2 P0000 FZRANO
PAKF 161701Z AUTO 30009KT 270V350 9SM -RA SCT011 SCT017 OVC060 02/M01 A2936 RMK AO2 SLP035 P0000 T00221006 FZRANO
PAKF 161658Z AUTO 31010KT 10SM FEW009 OVC060 02/M01 A2935 RMK AO2 RAE54 P0000 FZRANO
PAKF 161637Z AUTO 31013G18KT 10SM -RA FEW009 BKN020 OVC060 02/M01 A2935 RMK AO2 P0000 FZRANO
PAKF 161628Z AUTO 31012G16KT 9SM -RA SCT014 BKN021 OVC050 01/00 A2935 RMK AO2 UPB1503E1505RAB07SNB1505E07 SLP035 P0002 T00110000 FZRANO
PAKF 161621Z AUTO 29007KT 270V340 5SM -RA BR SCT014 BKN021 OVC050 01/M01 A2935 RMK AO2 UPB1503E1505RAB07SNB1505E07 P0002 FZRANO
PAKF 161601Z AUTO 00000KT 6SM -SN BR FEW017 BKN030 OVC050 01/M01 A2936 RMK AO2 UPB1503E1505SNB1505 P0001 FZRANO
PAKF 161541Z AUTO 25003KT 4SM -SN BR SCT014 BKN021 OVC029 00/M01 A2936 RMK AO2 UPB03E05SNB05 P0000 FZRANO
PAKF 161533Z AUTO 24003KT 4SM -SN BR BKN013 BKN021 OVC028 00/M01 A2936 RMK AO2 UPB03E05SNB05 P0000 FZRANO
PAKF 161516Z AUTO 00000KT 7SM -SN FEW013 BKN027 OVC034 00/M01 A2935 RMK AO2 UPB03E05SNB05 P0000 FZRANO
PAKF 161501Z AUTO 29003KT 10SM FEW027 BKN036 OVC043 M02/M02 A2935 RMK AO2 SLP034 T10171022 58000 FZRANO